Time;durP1;ratioP1;P1;durP2;ratioP2;P2;SDS_P1;SDS_P2;PMS_P1;PMS_P2;Temp;Humidity;BMP_temperature;BMP_pressure;BME280_temperature;BME280_humidity;BME280_pressure;Samples;Min_cycle;Max_cycle;Signal;HPM_P1;HPM_P2
2024/04/08 00:00:28;;;;;;;4.90;1.33;;;16.00;99.90;;;;;;5025389;28;20056;-77
2024/04/08 00:02:54;;;;;;;2.90;1.40;;;15.80;99.90;;;;;;5009727;28;20025;-77
2024/04/08 00:05:21;;;;;;;7.57;1.25;;;15.70;99.90;;;;;;5007388;28;20121;-76
2024/04/08 00:07:47;;;;;;;3.92;1.38;;;15.70;99.90;;;;;;4999299;28;20089;-78
2024/04/08 00:10:13;;;;;;;3.22;1.15;;;15.60;99.90;;;;;;4994110;28;20443;-79
2024/04/08 00:12:43;;;;;;;4.50;1.42;;;15.70;99.90;;;;;;5027694;28;20033;-77
2024/04/08 00:15:10;;;;;;;4.47;1.83;;;15.70;99.90;;;;;;5004583;28;20026;-77
2024/04/08 00:17:36;;;;;;;5.30;1.70;;;15.60;99.90;;;;;;4986106;28;20050;-76
2024/04/08 00:20:03;;;;;;;10.75;1.83;;;15.50;99.90;;;;;;4996786;28;20038;-78
2024/04/08 00:22:29;;;;;;;6.93;2.15;;;15.60;99.90;;;;;;5025839;28;20018;-77
2024/04/08 00:24:55;;;;;;;6.13;1.95;;;15.50;99.90;;;;;;5012347;28;20172;-75
2024/04/08 00:27:21;;;;;;;8.65;2.05;;;15.20;99.90;;;;;;5024001;28;20033;-75
2024/04/08 00:29:47;;;;;;;4.53;1.52;;;15.10;99.90;;;;;;4987390;28;20193;-75
2024/04/08 00:32:13;;;;;;;2.42;1.50;;;15.10;99.90;;;;;;5041848;28;20022;-78
2024/04/08 00:34:40;;;;;;;6.15;1.70;;;15.10;99.90;;;;;;5016566;28;20088;-75
2024/04/08 00:37:06;;;;;;;7.47;2.03;;;15.10;99.90;;;;;;5000852;28;20065;-75
2024/04/08 00:39:35;;;;;;;4.65;2.03;;;15.20;99.90;;;;;;5007347;28;20074;-77
2024/04/08 00:42:01;;;;;;;9.77;2.22;;;15.10;99.90;;;;;;5017387;28;20442;-78
2024/04/08 00:44:28;;;;;;;5.90;1.58;;;15.00;99.90;;;;;;5026191;28;20034;-77
2024/04/08 00:46:54;;;;;;;8.15;2.20;;;15.00;99.90;;;;;;5017501;28;20030;-78
2024/04/08 00:49:20;;;;;;;5.10;1.70;;;15.00;99.90;;;;;;5013340;28;20052;-75
2024/04/08 00:51:47;;;;;;;6.40;2.28;;;15.00;99.90;;;;;;5012467;28;20034;-74
2024/04/08 00:54:13;;;;;;;4.82;1.92;;;15.00;99.90;;;;;;5000433;28;20038;-79
2024/04/08 00:56:40;;;;;;;4.43;1.85;;;15.00;99.90;;;;;;4999471;28;20098;-76
2024/04/08 00:59:14;;;;;;;3.85;1.30;;;15.00;99.90;;;;;;5022546;28;20030;-76
2024/04/08 01:01:41;;;;;;;4.63;1.40;;;15.00;99.90;;;;;;5004366;28;20029;-77
2024/04/08 01:04:07;;;;;;;5.75;1.70;;;14.90;99.90;;;;;;5008928;28;20034;-76
2024/04/08 01:06:33;;;;;;;6.80;1.70;;;15.10;99.90;;;;;;5011512;28;20065;-77
2024/04/08 01:08:59;;;;;;;4.78;1.73;;;15.10;99.90;;;;;;4998381;28;20447;-76
2024/04/08 01:11:25;;;;;;;4.75;1.73;;;15.30;99.90;;;;;;5015312;28;20030;-76
2024/04/08 01:13:51;;;;;;;5.68;1.90;;;15.30;99.90;;;;;;5012767;28;20391;-76
2024/04/08 01:16:20;;;;;;;4.00;1.70;;;15.30;99.90;;;;;;5010458;28;20040;-75
2024/04/08 01:18:45;;;;;;;7.38;1.73;;;15.20;99.90;;;;;;4999749;28;20034;-76
2024/04/08 01:21:11;;;;;;;5.30;1.70;;;15.20;99.90;;;;;;4992931;28;20036;-75
2024/04/08 01:23:38;;;;;;;5.85;2.10;;;15.20;99.90;;;;;;4993790;28;20044;-75
2024/04/08 01:26:04;;;;;;;6.43;2.17;;;15.00;99.90;;;;;;4994638;28;20038;-78
2024/04/08 01:28:30;;;;;;;3.67;1.67;;;15.10;99.90;;;;;;5004956;28;20026;-77
2024/04/08 01:30:59;;;;;;;3.30;1.45;;;15.10;99.90;;;;;;5014242;28;20055;-77
2024/04/08 01:33:28;;;;;;;4.47;1.52;;;15.20;99.90;;;;;;5015161;28;20316;-78
2024/04/08 01:35:54;;;;;;;6.90;1.90;;;15.30;99.90;;;;;;5007089;28;20823;-75
2024/04/08 01:38:20;;;;;;;3.25;1.58;;;15.10;99.90;;;;;;5013874;28;20034;-77
2024/04/08 01:40:46;;;;;;;6.38;1.73;;;15.00;99.90;;;;;;4999288;28;20406;-76
2024/04/08 01:43:12;;;;;;;9.43;1.70;;;14.90;99.90;;;;;;4992113;28;20454;-76
2024/04/08 01:45:39;;;;;;;4.35;1.83;;;15.00;99.90;;;;;;5003557;28;20068;-75
2024/04/08 01:48:05;;;;;;;5.60;1.67;;;14.90;99.90;;;;;;5014638;28;20026;-76
2024/04/08 01:50:32;;;;;;;6.18;1.80;;;14.90;99.90;;;;;;5014574;28;20045;-77
2024/04/08 01:52:57;;;;;;;6.00;1.90;;;14.70;99.90;;;;;;5003155;28;20034;-78
2024/04/08 01:55:23;;;;;;;7.00;2.15;;;14.50;99.90;;;;;;4998360;28;20823;-75
2024/04/08 01:57:50;;;;;;;5.40;2.30;;;14.40;99.90;;;;;;5014485;28;20800;-75
2024/04/08 02:00:15;;;;;;;4.72;1.77;;;14.40;99.90;;;;;;4985120;28;20149;-76
2024/04/08 02:02:41;;;;;;;5.63;2.38;;;14.50;99.90;;;;;;5014668;28;20486;-76
2024/04/08 02:05:07;;;;;;;6.15;1.83;;;14.40;99.90;;;;;;4993825;28;20026;-76
2024/04/08 02:07:32;;;;;;;6.57;2.22;;;14.60;99.90;;;;;;5004873;28;20172;-76
2024/04/08 02:09:59;;;;;;;5.93;1.83;;;14.60;99.90;;;;;;5013781;28;20221;-75
2024/04/08 02:12:26;;;;;;;9.43;2.10;;;14.70;99.90;;;;;;4998348;28;20053;-75
2024/04/08 02:14:52;;;;;;;6.13;2.00;;;14.70;99.90;;;;;;5002725;28;20026;-75
2024/04/08 02:17:18;;;;;;;5.00;2.25;;;14.80;99.90;;;;;;4996506;28;20041;-77
2024/04/08 02:19:44;;;;;;;5.97;2.15;;;14.80;99.90;;;;;;5000832;28;20026;-74
2024/04/08 02:22:09;;;;;;;4.30;2.28;;;14.90;99.90;;;;;;4999625;28;20035;-75
2024/04/08 02:24:35;;;;;;;5.80;2.53;;;14.90;99.90;;;;;;4973653;28;20392;-77
2024/04/08 02:27:01;;;;;;;5.97;1.85;;;14.80;99.90;;;;;;4989706;28;20030;-78
2024/04/08 02:29:27;;;;;;;7.07;2.40;;;14.80;99.90;;;;;;4993523;28;20037;-77
2024/04/08 02:31:53;;;;;;;6.93;2.10;;;14.70;99.90;;;;;;5006081;28;20030;-74
2024/04/08 02:34:19;;;;;;;4.22;2.25;;;14.80;99.90;;;;;;5018752;28;20457;-79
2024/04/08 02:36:45;;;;;;;5.68;2.42;;;14.70;99.90;;;;;;5007101;28;20054;-79
2024/04/08 02:39:11;;;;;;;5.15;1.92;;;14.70;99.90;;;;;;4996050;28;20436;-79
2024/04/08 02:41:37;;;;;;;7.03;2.13;;;14.80;99.90;;;;;;4997911;28;20044;-76
2024/04/08 02:44:03;;;;;;;5.30;2.55;;;14.70;99.90;;;;;;4990430;28;20026;-78
2024/04/08 02:46:29;;;;;;;5.25;2.30;;;14.70;99.90;;;;;;4993191;28;20403;-77
2024/04/08 02:48:54;;;;;;;3.97;2.13;;;14.60;99.90;;;;;;5005838;28;20080;-77
2024/04/08 02:51:20;;;;;;;7.20;2.10;;;14.50;99.90;;;;;;4985710;28;20522;-77
2024/04/08 02:53:46;;;;;;;9.25;2.25;;;14.60;99.90;;;;;;5007307;28;20023;-76
2024/04/08 02:56:11;;;;;;;7.43;2.72;;;14.70;99.90;;;;;;4985068;28;20394;-78
2024/04/08 02:58:37;;;;;;;5.72;2.25;;;14.60;99.90;;;;;;4988225;28;20149;-77
2024/04/08 03:01:09;;;;;;;6.75;2.05;;;14.70;99.90;;;;;;4981497;28;20045;-77
2024/04/08 03:03:35;;;;;;;3.80;2.00;;;14.50;99.90;;;;;;4994784;28;20030;-79
2024/04/08 03:06:11;;;;;;;8.23;2.47;;;14.50;99.90;;;;;;5009748;28;20398;-77
2024/04/08 03:08:37;;;;;;;6.80;2.47;;;14.50;99.90;;;;;;4998686;28;20037;-78
2024/04/08 03:11:04;;;;;;;4.72;2.40;;;14.30;99.90;;;;;;5008353;28;20023;-79
2024/04/08 03:13:30;;;;;;;4.28;2.42;;;14.20;99.90;;;;;;5013537;28;20091;-77
2024/04/08 03:15:56;;;;;;;4.93;2.08;;;14.10;99.90;;;;;;4994808;28;20053;-76
2024/04/08 03:18:23;;;;;;;5.40;2.60;;;14.00;99.90;;;;;;5015151;28;20054;-76
2024/04/08 03:20:59;;;;;;;4.25;2.10;;;13.80;99.90;;;;;;5015095;28;20376;-78
2024/04/08 03:23:25;;;;;;;5.65;2.47;;;13.80;99.90;;;;;;4998287;28;20032;-77
2024/04/08 03:26:12;;;;;;;8.70;2.70;;;13.90;99.90;;;;;;4974601;28;20034;-77
2024/04/08 03:28:38;;;;;;;6.22;2.83;;;14.00;99.90;;;;;;5018776;28;20049;-78
2024/04/08 03:31:08;;;;;;;9.35;2.75;;;14.00;99.90;;;;;;5011462;28;20037;-79
2024/04/08 03:33:34;;;;;;;8.77;2.22;;;14.00;99.90;;;;;;5005747;28;20150;-76
2024/04/08 03:36:00;;;;;;;9.80;2.70;;;13.90;99.90;;;;;;5017818;28;20101;-78
2024/04/08 03:38:27;;;;;;;8.07;3.22;;;14.00;99.90;;;;;;4998974;28;20052;-78
2024/04/08 03:41:00;;;;;;;5.25;2.20;;;14.10;99.90;;;;;;4996682;28;20413;-77
2024/04/08 03:43:27;;;;;;;5.15;2.30;;;14.00;99.90;;;;;;4999827;28;20121;-77
2024/04/08 03:45:53;;;;;;;5.45;2.35;;;14.00;99.90;;;;;;5012538;28;20038;-75
2024/04/08 03:48:18;;;;;;;7.25;2.40;;;14.00;99.90;;;;;;5015144;28;20025;-75
2024/04/08 03:50:44;;;;;;;6.55;2.88;;;14.00;99.90;;;;;;4978944;28;20064;-77
2024/04/08 03:53:10;;;;;;;9.10;2.50;;;14.10;99.90;;;;;;5014778;28;20073;-76
2024/04/08 03:55:35;;;;;;;5.43;2.75;;;14.10;99.90;;;;;;5033905;28;20044;-76
2024/04/08 03:58:01;;;;;;;6.78;2.58;;;13.90;99.90;;;;;;5028841;28;20030;-76
2024/04/08 04:00:26;;;;;;;7.72;2.42;;;14.00;99.90;;;;;;5018162;28;20502;-75
2024/04/08 04:02:52;;;;;;;6.35;2.60;;;13.90;99.90;;;;;;5016213;28;20030;-76
2024/04/08 04:05:21;;;;;;;7.38;3.20;;;14.00;99.90;;;;;;5013286;28;20030;-77
2024/04/08 04:07:47;;;;;;;5.53;2.58;;;13.90;99.90;;;;;;4998680;28;20026;-76
2024/04/08 04:10:14;;;;;;;8.07;2.90;;;14.00;99.90;;;;;;4999609;28;20039;-77
2024/04/08 04:12:39;;;;;;;5.90;2.65;;;14.00;99.90;;;;;;5015875;28;20045;-75
2024/04/08 04:15:06;;;;;;;8.27;2.60;;;13.90;99.90;;;;;;4987249;28;20042;-76
2024/04/08 04:17:32;;;;;;;4.90;2.20;;;13.90;99.90;;;;;;5025015;28;20018;-77
2024/04/08 04:19:58;;;;;;;3.60;2.45;;;13.80;99.90;;;;;;5012025;28;20131;-77
2024/04/08 04:22:24;;;;;;;7.28;2.50;;;13.80;99.90;;;;;;5011821;28;20097;-77
2024/04/08 04:24:49;;;;;;;5.00;2.30;;;13.80;99.90;;;;;;5016047;28;20034;-80
2024/04/08 04:27:15;;;;;;;5.20;2.10;;;13.90;99.90;;;;;;5002528;28;20030;-75
2024/04/08 04:29:41;;;;;;;4.10;2.25;;;14.00;99.90;;;;;;5006171;28;20033;-79
2024/04/08 04:32:07;;;;;;;5.90;1.95;;;14.10;99.90;;;;;;5001465;28;20040;-75
2024/04/08 04:34:33;;;;;;;4.43;2.13;;;14.10;99.90;;;;;;5016776;28;20026;-78
2024/04/08 04:36:58;;;;;;;5.60;2.42;;;14.10;99.90;;;;;;5002519;28;20067;-74
2024/04/08 04:39:24;;;;;;;7.15;2.40;;;14.20;99.90;;;;;;5041662;28;20108;-76
2024/04/08 04:41:50;;;;;;;5.13;2.10;;;14.30;99.90;;;;;;5006954;28;20025;-76
2024/04/08 04:44:16;;;;;;;9.27;2.83;;;14.30;99.90;;;;;;4997890;28;20493;-78
2024/04/08 04:46:41;;;;;;;5.30;2.45;;;14.30;99.90;;;;;;5014673;28;20516;-75
2024/04/08 04:49:07;;;;;;;8.45;3.33;;;14.30;99.90;;;;;;5001676;28;20029;-77
2024/04/08 04:51:33;;;;;;;8.27;3.03;;;14.20;99.90;;;;;;4995869;28;20038;-75
2024/04/08 04:53:58;;;;;;;10.75;2.90;;;14.00;99.90;;;;;;5023908;28;20025;-79
2024/04/08 04:56:24;;;;;;;6.75;2.72;;;14.00;99.90;;;;;;5028125;28;20038;-79
2024/04/08 04:58:50;;;;;;;8.25;2.63;;;13.90;99.90;;;;;;5021156;28;20028;-78
2024/04/08 05:01:15;;;;;;;6.03;2.83;;;13.90;99.90;;;;;;5003597;28;20033;-79
2024/04/08 05:03:41;;;;;;;7.10;2.65;;;13.80;99.90;;;;;;4998411;28;20156;-80
2024/04/08 05:06:06;;;;;;;9.95;3.35;;;13.80;99.90;;;;;;5017060;28;20037;-83
2024/04/08 05:08:32;;;;;;;8.18;3.03;;;13.80;99.90;;;;;;5000487;28;20437;-79
2024/04/08 05:10:58;;;;;;;6.45;2.70;;;13.90;99.90;;;;;;4991657;28;20041;-77
2024/04/08 05:13:24;;;;;;;8.23;3.05;;;13.90;99.90;;;;;;5000235;28;20675;-80
2024/04/08 05:16:00;;;;;;;8.93;2.80;;;13.90;99.90;;;;;;5015968;28;20056;-78
2024/04/08 05:18:28;;;;;;;8.90;3.20;;;14.00;99.90;;;;;;5001861;28;20044;-80
2024/04/08 05:20:54;;;;;;;9.48;2.80;;;14.20;99.90;;;;;;5005014;28;20030;-80
2024/04/08 05:23:25;;;;;;;9.82;2.90;;;14.10;99.90;;;;;;5029044;28;20037;-77
2024/04/08 05:25:51;;;;;;;8.85;3.10;;;14.10;99.90;;;;;;5022542;28;20034;-80
2024/04/08 05:28:17;;;;;;;10.20;2.97;;;14.30;99.90;;;;;;5034627;28;20055;-78
2024/04/08 05:30:43;;;;;;;6.80;3.35;;;14.30;99.90;;;;;;5023244;28;20029;-78
2024/04/08 05:33:09;;;;;;;5.90;2.78;;;14.30;99.90;;;;;;5000630;28;20034;-79
2024/04/08 05:35:36;;;;;;;6.05;3.08;;;14.40;99.90;;;;;;5029220;28;20115;-77
2024/04/08 05:38:01;;;;;;;10.48;3.88;;;14.50;99.90;;;;;;5021414;28;20029;-76
2024/04/08 05:40:27;;;;;;;7.18;3.28;;;14.50;99.90;;;;;;5033213;28;20485;-77
2024/04/08 05:42:53;;;;;;;10.23;3.70;;;14.70;99.90;;;;;;5018899;28;20577;-79
2024/04/08 05:45:21;;;;;;;9.02;3.40;;;14.80;99.90;;;;;;5020638;28;20603;-77
2024/04/08 05:47:53;;;;;;;9.50;3.70;;;14.80;99.90;;;;;;5024245;28;20028;-77
2024/04/08 05:50:20;;;;;;;11.63;3.70;;;14.60;99.90;;;;;;5020568;28;20116;-77
2024/04/08 05:52:46;;;;;;;8.88;3.95;;;14.60;99.90;;;;;;5014931;28;20048;-77
2024/04/08 05:55:12;;;;;;;7.40;3.67;;;14.60;99.90;;;;;;5037595;28;20025;-78
2024/04/08 05:57:37;;;;;;;10.93;4.10;;;14.70;99.90;;;;;;5019239;28;20030;-78
2024/04/08 06:00:03;;;;;;;7.63;2.97;;;14.80;99.90;;;;;;4997367;28;20026;-78
2024/04/08 06:02:30;;;;;;;7.10;3.25;;;14.80;99.90;;;;;;5013306;28;20061;-80
2024/04/08 06:04:56;;;;;;;9.20;3.90;;;14.70;99.90;;;;;;5018579;28;20452;-76
2024/04/08 06:07:22;;;;;;;7.38;3.67;;;14.70;99.90;;;;;;5031741;28;20038;-78
2024/04/08 06:09:48;;;;;;;10.02;3.50;;;14.80;99.90;;;;;;5034126;28;20494;-78
2024/04/08 06:12:13;;;;;;;7.00;3.33;;;14.80;99.90;;;;;;5016241;28;20406;-77
2024/04/08 06:14:39;;;;;;;7.10;3.58;;;14.90;99.90;;;;;;5014868;28;20026;-78
2024/04/08 06:17:05;;;;;;;9.18;3.47;;;14.80;99.90;;;;;;4999517;28;20057;-78
2024/04/08 06:19:32;;;;;;;8.10;3.35;;;14.80;99.90;;;;;;5028865;28;20017;-79
2024/04/08 06:21:57;;;;;;;8.88;3.85;;;15.00;99.90;;;;;;4983904;28;20030;-77
2024/04/08 06:24:24;;;;;;;8.23;3.30;;;15.10;99.90;;;;;;5008416;28;20041;-79
2024/04/08 06:26:50;;;;;;;10.90;3.47;;;15.10;99.90;;;;;;4992548;28;20037;-78
2024/04/08 06:29:16;;;;;;;10.73;3.75;;;15.10;99.90;;;;;;5013849;28;20065;-77
2024/04/08 06:31:42;;;;;;;10.57;3.80;;;15.10;99.90;;;;;;5013451;28;20060;-78
2024/04/08 06:34:08;;;;;;;9.93;3.13;;;15.20;99.90;;;;;;5008554;28;20033;-77
2024/04/08 06:36:35;;;;;;;8.70;3.50;;;15.20;99.90;;;;;;5014375;28;20081;-79
2024/04/08 06:39:01;;;;;;;10.80;3.45;;;15.30;99.90;;;;;;5014553;28;20025;-76
2024/04/08 06:41:27;;;;;;;12.07;4.28;;;15.50;99.90;;;;;;5014270;28;20033;-77
2024/04/08 06:43:52;;;;;;;8.30;3.78;;;15.60;99.90;;;;;;4999114;28;20105;-76
2024/04/08 06:46:18;;;;;;;7.40;3.63;;;15.80;99.90;;;;;;5013611;28;20041;-77
2024/04/08 06:48:44;;;;;;;10.40;4.00;;;16.00;99.90;;;;;;5014367;28;20494;-77
2024/04/08 06:51:09;;;;;;;13.30;4.07;;;16.20;99.90;;;;;;5013155;28;20068;-76
2024/04/08 06:53:36;;;;;;;15.55;5.05;;;16.20;99.90;;;;;;4986543;28;20120;-76
2024/04/08 06:56:01;;;;;;;17.23;6.78;;;16.30;99.90;;;;;;5018550;28;20597;-76
2024/04/08 06:58:27;;;;;;;17.92;6.97;;;16.30;99.90;;;;;;5015902;28;20116;-76
2024/04/08 07:00:53;;;;;;;20.45;8.63;;;16.40;99.90;;;;;;5011393;28;20045;-77
2024/04/08 07:03:18;;;;;;;18.40;8.45;;;16.40;99.90;;;;;;5007396;28;20049;-77
2024/04/08 07:05:46;;;;;;;14.50;6.63;;;16.30;99.90;;;;;;5004438;28;20049;-78
2024/04/08 07:08:12;;;;;;;13.23;5.40;;;16.30;99.90;;;;;;5040032;28;20036;-78
2024/04/08 07:10:38;;;;;;;11.18;4.25;;;16.20;99.90;;;;;;4995704;28;20026;-78
2024/04/08 07:13:04;;;;;;;13.43;4.05;;;16.10;99.90;;;;;;5001272;28;20124;-78
2024/04/08 07:15:29;;;;;;;10.75;4.35;;;16.00;99.90;;;;;;4980623;28;20121;-78
2024/04/08 07:17:55;;;;;;;11.70;3.75;;;16.10;99.90;;;;;;5002841;28;20391;-79
2024/04/08 07:20:21;;;;;;;10.20;3.42;;;16.20;99.90;;;;;;5006454;28;20505;-78
2024/04/08 07:22:47;;;;;;;11.18;4.00;;;16.20;99.90;;;;;;5001187;28;20038;-79
2024/04/08 07:25:13;;;;;;;9.10;3.70;;;16.30;99.90;;;;;;4998204;28;20057;-78
2024/04/08 07:27:38;;;;;;;15.38;4.40;;;16.40;99.90;;;;;;4993324;28;20056;-79
2024/04/08 07:30:05;;;;;;;13.20;4.35;;;16.40;99.90;;;;;;5023819;28;20036;-78
2024/04/08 07:33:43;;;;;;;9.73;3.88;;;16.40;99.90;;;;;;5552302;25;20076;-79
2024/04/08 07:36:09;;;;;;;9.20;4.13;;;16.60;99.90;;;;;;5409585;26;20453;-77
2024/04/08 07:38:35;;;;;;;11.60;4.65;;;16.60;99.90;;;;;;5404678;26;19998;-76
2024/04/08 07:41:00;;;;;;;8.25;3.65;;;16.70;99.90;;;;;;5491281;26;19998;-77
2024/04/08 07:43:26;;;;;;;13.40;4.28;;;16.80;99.90;;;;;;5442867;26;20079;-77
2024/04/08 07:45:53;;;;;;;15.10;4.35;;;16.80;99.90;;;;;;5444924;26;19997;-77
2024/04/08 07:48:21;;;;;;;13.00;4.43;;;16.90;99.90;;;;;;5442638;26;20381;-78
2024/04/08 07:50:47;;;;;;;13.73;4.35;;;16.90;99.90;;;;;;5468066;26;19999;-77
2024/04/08 07:53:12;;;;;;;10.82;5.03;;;16.90;99.90;;;;;;5486372;26;20017;-78
2024/04/08 07:55:38;;;;;;;19.50;4.90;;;16.90;99.90;;;;;;5410980;26;20010;-77
2024/04/08 07:58:05;;;;;;;10.60;4.70;;;17.00;99.90;;;;;;5475322;26;19994;-77
2024/04/08 08:00:31;;;;;;;13.00;4.75;;;17.10;99.90;;;;;;5492864;26;20006;-77
2024/04/08 08:02:59;;;;;;;13.80;4.80;;;17.10;99.90;;;;;;5481901;26;20402;-77
2024/04/08 08:05:25;;;;;;;16.45;5.25;;;17.10;99.90;;;;;;5455791;26;19999;-76
2024/04/08 08:07:50;;;;;;;14.80;4.35;;;17.00;99.90;;;;;;5448016;26;20002;-78
2024/04/08 08:10:17;;;;;;;15.57;4.63;;;17.00;99.90;;;;;;5504355;26;20079;-77
2024/04/08 08:12:43;;;;;;;18.17;4.53;;;17.00;99.90;;;;;;5461957;26;19999;-77
2024/04/08 08:15:08;;;;;;;14.82;5.22;;;17.00;99.90;;;;;;5464577;26;20445;-78
2024/04/08 08:17:34;;;;;;;10.68;5.10;;;17.30;99.90;;;;;;5470816;26;20016;-78
2024/04/08 08:19:59;;;;;;;12.20;4.25;;;17.40;99.90;;;;;;5481796;26;20289;-78
2024/04/08 08:22:26;;;;;;;10.65;3.75;;;17.70;99.90;;;;;;5505203;26;20463;-77
2024/04/08 08:24:51;;;;;;;14.23;4.80;;;17.80;99.90;;;;;;5458857;26;19999;-82
2024/04/08 08:27:17;;;;;;;12.13;4.38;;;17.70;99.90;;;;;;5394032;26;20457;-77
2024/04/08 08:29:46;;;;;;;10.60;4.28;;;17.70;99.90;;;;;;5493506;26;20002;-78
2024/04/08 08:32:12;;;;;;;8.57;3.33;;;17.90;99.90;;;;;;5440788;26;20015;-79
2024/04/08 08:34:38;;;;;;;12.50;3.78;;;18.10;99.90;;;;;;5414826;26;20448;-78
2024/04/08 08:37:03;;;;;;;11.35;2.80;;;18.10;99.90;;;;;;5467824;26;20010;-78
2024/04/08 08:39:30;;;;;;;6.60;2.65;;;18.20;99.90;;;;;;5431783;26;20459;-78
2024/04/08 08:41:58;;;;;;;16.20;4.82;;;18.40;99.90;;;;;;5433261;26;20312;-77
2024/04/08 08:44:25;;;;;;;5.47;2.75;;;18.40;99.90;;;;;;5449555;26;20003;-78
2024/04/08 08:46:50;;;;;;;10.63;3.45;;;18.60;99.90;;;;;;5416943;26;19996;-80
2024/04/08 08:49:18;;;;;;;5.57;2.67;;;18.90;99.90;;;;;;5386426;26;19999;-78
2024/04/08 08:51:44;;;;;;;8.50;2.70;;;19.10;99.90;;;;;;5451993;26;20048;-77
2024/04/08 08:54:10;;;;;;;6.22;2.80;;;19.40;99.90;;;;;;5394630;26;19998;-77
2024/04/08 08:56:36;;;;;;;5.18;2.13;;;19.50;99.90;;;;;;5457410;26;20009;-79
2024/04/08 08:59:03;;;;;;;10.85;2.33;;;19.40;99.90;;;;;;5397950;26;20075;-79
2024/04/08 09:01:31;;;;;;;6.78;2.35;;;19.40;99.90;;;;;;5421111;26;19996;-80
2024/04/08 09:03:57;;;;;;;9.02;2.05;;;19.40;99.90;;;;;;5417770;26;19995;-78
2024/04/08 09:06:23;;;;;;;9.68;2.83;;;19.60;99.90;;;;;;5452905;26;20045;-80
2024/04/08 09:08:49;;;;;;;7.38;2.10;;;19.80;99.90;;;;;;5457848;26;20006;-78
2024/04/08 09:11:16;;;;;;;6.88;2.40;;;19.90;99.90;;;;;;5399321;26;20007;-78
2024/04/08 09:13:42;;;;;;;5.28;1.90;;;19.90;99.90;;;;;;5424489;26;20003;-79
2024/04/08 09:16:08;;;;;;;3.90;1.90;;;20.00;99.90;;;;;;5447500;26;20120;-77
2024/04/08 09:18:34;;;;;;;7.20;2.38;;;20.10;99.90;;;;;;5407362;26;20008;-78
2024/04/08 09:21:00;;;;;;;5.25;2.22;;;20.20;99.90;;;;;;5423454;26;20022;-77
2024/04/08 09:23:26;;;;;;;6.70;1.83;;;20.40;99.90;;;;;;5447569;26;20045;-80
2024/04/08 09:25:52;;;;;;;4.18;1.77;;;20.50;99.90;;;;;;5446788;26;20000;-79
2024/04/08 09:28:17;;;;;;;4.60;1.75;;;20.40;99.90;;;;;;5441139;26;20021;-78
2024/04/08 09:30:44;;;;;;;8.77;2.03;;;20.30;99.90;;;;;;5392521;26;20525;-80
2024/04/08 09:33:12;;;;;;;3.42;1.55;;;20.60;99.90;;;;;;5422051;26;20452;-79
2024/04/08 09:35:42;;;;;;;6.43;1.60;;;20.40;99.90;;;;;;5416644;26;19996;-79
2024/04/08 09:38:09;;;;;;;6.95;1.80;;;20.30;99.90;;;;;;5442302;26;20034;-80
2024/04/08 09:40:37;;;;;;;5.85;2.03;;;20.30;99.90;;;;;;5448984;26;20343;-79
2024/04/08 09:43:03;;;;;;;8.55;2.30;;;20.60;99.90;;;;;;5452731;26;20014;-79
2024/04/08 09:45:29;;;;;;;4.82;1.63;;;21.20;99.90;;;;;;5453314;26;20072;-79
2024/04/08 09:47:55;;;;;;;3.92;1.60;;;21.80;99.90;;;;;;5423069;26;20682;-78
2024/04/08 09:50:23;;;;;;;5.75;1.95;;;22.00;99.90;;;;;;5424732;26;20053;-78
2024/04/08 09:52:49;;;;;;;6.18;2.08;;;21.70;99.90;;;;;;5457033;26;19998;-77
2024/04/08 09:55:14;;;;;;;6.15;1.80;;;21.40;99.90;;;;;;5411802;26;20010;-78
2024/04/08 09:57:44;;;;;;;4.95;2.17;;;21.20;99.90;;;;;;5446902;26;19999;-79
2024/04/08 10:00:15;;;;;;;5.47;2.08;;;20.90;99.90;;;;;;5454653;26;20014;-77
2024/04/08 10:02:43;;;;;;;3.97;1.92;;;20.90;99.90;;;;;;5427319;26;20018;-77
2024/04/08 10:05:13;;;;;;;7.22;2.72;;;20.70;99.90;;;;;;5458741;26;20010;-78
2024/04/08 10:07:40;;;;;;;7.15;2.38;;;20.50;99.90;;;;;;5446268;26;20013;-78
2024/04/08 10:10:10;;;;;;;7.72;2.17;;;20.70;99.90;;;;;;5463930;26;20036;-78
2024/04/08 10:12:36;;;;;;;4.57;1.83;;;20.70;99.90;;;;;;5432549;26;20018;-80
2024/04/08 10:15:15;;;;;;;9.10;2.20;;;20.50;99.90;;;;;;5456145;26;19995;-79
2024/04/08 10:17:46;;;;;;;6.13;2.08;;;20.40;99.90;;;;;;5449933;26;20006;-80
2024/04/08 10:20:15;;;;;;;6.13;2.22;;;20.80;99.90;;;;;;5451070;26;20048;-79
2024/04/08 10:22:40;;;;;;;5.88;2.17;;;21.90;99.90;;;;;;5454406;26;20012;-80
2024/04/08 10:25:47;;;;;;;7.55;2.28;;;22.30;99.90;;;;;;5450125;26;20003;-79
2024/04/08 10:28:23;;;;;;;3.53;1.58;;;21.90;99.90;;;;;;5454009;26;20331;-79
2024/04/08 10:30:50;;;;;;;7.03;2.00;;;21.70;99.90;;;;;;5453842;26;20072;-79
2024/04/08 10:33:16;;;;;;;7.28;1.92;;;22.00;99.90;;;;;;5444101;26;20024;-79
2024/04/08 10:35:42;;;;;;;7.38;1.83;;;22.10;99.90;;;;;;5451848;26;20351;-80
2024/04/08 10:38:08;;;;;;;6.63;2.25;;;22.10;99.90;;;;;;5450933;26;20408;-79
2024/04/08 10:40:34;;;;;;;12.27;2.42;;;22.00;99.90;;;;;;5432163;26;20003;-78
2024/04/08 10:43:00;;;;;;;9.00;2.50;;;21.90;99.90;;;;;;5457274;26;20002;-78
2024/04/08 10:45:26;;;;;;;4.57;2.05;;;21.90;99.90;;;;;;5443074;26;20336;-77
2024/04/08 10:47:56;;;;;;;4.53;2.05;;;22.00;99.90;;;;;;5436195;26;20010;-78
2024/04/08 10:50:22;;;;;;;4.32;1.60;;;21.90;99.90;;;;;;5428147;26;19999;-77
2024/04/08 10:52:48;;;;;;;3.72;1.85;;;21.90;99.90;;;;;;5414472;26;20009;-78
2024/04/08 10:55:14;;;;;;;4.82;1.92;;;21.70;99.90;;;;;;5412459;26;20011;-80
2024/04/08 10:57:40;;;;;;;4.20;1.77;;;21.40;99.90;;;;;;5413151;26;20772;-77
2024/04/08 11:00:06;;;;;;;8.93;2.03;;;21.10;99.90;;;;;;5419774;26;19998;-78
2024/04/08 11:02:34;;;;;;;5.57;1.90;;;20.70;99.90;;;;;;5420649;26;20024;-79
2024/04/08 11:05:01;;;;;;;9.48;2.58;;;20.30;99.90;;;;;;5444362;26;20014;-77
2024/04/08 11:07:35;;;;;;;6.20;1.70;;;20.10;99.90;;;;;;5444924;26;20024;-77
2024/04/08 11:10:28;;;;;;;3.97;1.58;;;20.00;99.90;;;;;;5444201;26;20014;-79
2024/04/08 11:12:55;;;;;;;4.32;1.70;;;19.90;99.90;;;;;;5468972;26;19994;-77
2024/04/08 11:15:23;;;;;;;3.63;1.40;;;19.80;99.90;;;;;;5451360;26;20006;-77
2024/04/08 11:17:55;;;;;;;7.68;1.92;;;19.70;99.90;;;;;;5452331;26;20006;-76
2024/04/08 11:20:21;;;;;;;4.80;1.30;;;19.50;99.90;;;;;;5451312;26;20007;-80
2024/04/08 11:22:46;;;;;;;3.95;1.50;;;19.40;99.90;;;;;;5395746;26;20308;-80
2024/04/08 11:25:16;;;;;;;3.95;1.58;;;19.40;99.90;;;;;;5393022;26;19994;-77
2024/04/08 11:27:43;;;;;;;6.43;1.50;;;19.40;99.90;;;;;;5449920;26;20320;-76
2024/04/08 11:30:14;;;;;;;4.47;1.88;;;19.40;99.90;;;;;;5451968;26;20003;-77
2024/04/08 11:32:40;;;;;;;2.38;1.30;;;19.30;99.90;;;;;;5471615;26;19998;-78
2024/04/08 11:35:06;;;;;;;3.03;1.50;;;19.30;99.90;;;;;;5447971;26;20044;-79
2024/04/08 11:37:32;;;;;;;4.15;1.55;;;19.30;99.90;;;;;;5451194;26;19999;-76
2024/04/08 11:39:57;;;;;;;2.22;1.20;;;19.30;99.90;;;;;;5454901;26;20080;-77
2024/04/08 11:42:23;;;;;;;5.30;1.73;;;19.40;99.90;;;;;;5418276;26;20099;-77
2024/04/08 11:45:00;;;;;;;4.32;1.70;;;19.40;99.90;;;;;;5441496;26;20341;-77
2024/04/08 11:47:26;;;;;;;3.75;1.58;;;19.40;99.90;;;;;;5437163;26;20083;-78
2024/04/08 11:49:52;;;;;;;3.53;1.25;;;19.40;99.90;;;;;;5453553;26;20003;-77
2024/04/08 11:52:18;;;;;;;5.53;1.40;;;19.70;99.90;;;;;;5437667;26;20356;-77
2024/04/08 11:54:44;;;;;;;4.97;1.15;;;19.80;99.90;;;;;;5441012;26;19995;-78
2024/04/08 11:57:10;;;;;;;3.60;1.10;;;20.00;99.90;;;;;;5430574;26;19998;-77
2024/04/08 11:59:37;;;;;;;1.63;0.80;;;20.00;99.90;;;;;;5462458;26;19999;-77
2024/04/08 12:02:03;;;;;;;4.38;1.23;;;20.00;99.90;;;;;;5418796;26;20440;-78
2024/04/08 12:04:32;;;;;;;1.40;0.95;;;20.00;99.90;;;;;;5415839;26;20437;-78
2024/04/08 12:06:58;;;;;;;7.22;0.85;;;20.00;99.90;;;;;;5440039;26;20003;-77
2024/04/08 12:09:25;;;;;;;2.70;0.88;;;19.80;99.90;;;;;;5458928;26;20010;-76
2024/04/08 12:11:51;;;;;;;7.72;1.33;;;19.70;99.90;;;;;;5443436;26;20019;-78
2024/04/08 12:14:16;;;;;;;5.80;0.90;;;19.80;99.90;;;;;;5421347;26;20013;-77
2024/04/08 12:16:42;;;;;;;1.80;0.85;;;20.10;99.90;;;;;;5419050;26;20444;-79
2024/04/08 12:19:09;;;;;;;3.95;0.90;;;20.20;99.90;;;;;;5435306;26;20336;-78
2024/04/08 12:21:35;;;;;;;4.47;1.00;;;20.30;99.90;;;;;;5436499;26;20002;-79
2024/04/08 12:24:02;;;;;;;5.20;1.20;;;20.40;99.90;;;;;;5476670;26;20285;-78
2024/04/08 12:26:28;;;;;;;3.15;0.60;;;20.40;99.90;;;;;;5477435;26;20013;-78
2024/04/08 12:28:54;;;;;;;3.08;1.08;;;20.60;99.90;;;;;;5456850;26;19999;-77
2024/04/08 12:31:19;;;;;;;7.78;1.27;;;20.80;99.90;;;;;;5460272;26;20014;-77
2024/04/08 12:33:45;;;;;;;3.20;0.90;;;21.10;99.90;;;;;;5494105;26;20010;-78
2024/04/08 12:36:11;;;;;;;8.82;1.35;;;21.20;99.90;;;;;;5463821;26;19998;-77
2024/04/08 12:38:37;;;;;;;6.40;1.23;;;21.90;99.90;;;;;;5431141;26;20023;-78
2024/04/08 12:41:03;;;;;;;3.42;1.23;;;23.30;99.90;;;;;;5493044;26;20083;-79
2024/04/08 12:43:29;;;;;;;2.92;1.00;;;23.70;99.90;;;;;;5483672;26;20415;-76